createdAt,value
2022-11-19T00:02:03.071Z,99050.59
2022-11-19T00:05:05.393Z,99068.56
2022-11-19T00:08:08.365Z,99060.31
2022-11-19T00:11:16.619Z,99075.97
2022-11-19T00:14:18.887Z,99072.69
2022-11-19T00:17:21.226Z,99077.19
2022-11-19T00:20:23.480Z,99080.44
2022-11-19T00:23:25.677Z,99080.22
2022-11-19T00:26:28.035Z,99085.72
2022-11-19T00:29:30.460Z,99092.09
2022-11-19T00:32:32.758Z,99092.72
2022-11-19T00:35:34.979Z,99097.19
2022-11-19T00:38:37.635Z,99095.34
2022-11-19T00:41:39.874Z,99099.03
2022-11-19T00:44:42.143Z,99106.16
2022-11-19T00:51:00.749Z,99111.25
2022-11-19T00:54:03.060Z,99120.00
2022-11-19T00:57:05.368Z,99128.06
2022-11-19T01:00:08.826Z,99136.09
2022-11-19T01:03:11.437Z,99143.62
2022-11-19T01:06:19.060Z,99136.44
2022-11-19T01:09:22.189Z,99139.59
2022-11-19T01:12:24.511Z,99143.38
2022-11-19T01:15:26.758Z,99146.34
2022-11-19T01:18:29.096Z,99145.56
2022-11-19T01:21:33.710Z,99146.66
2022-11-19T01:24:36.040Z,99150.91
2022-11-19T01:27:38.869Z,99157.31
2022-11-19T01:30:42.951Z,99164.31
2022-11-19T01:33:45.874Z,99182.56
2022-11-19T01:36:48.079Z,99188.62
2022-11-19T01:39:50.634Z,99179.41
2022-11-19T01:42:56.010Z,99169.38
2022-11-19T01:45:58.160Z,99177.53
2022-11-19T01:49:09.471Z,99182.00
2022-11-19T01:52:11.847Z,99178.78
2022-11-19T01:55:14.473Z,99179.13
2022-11-19T01:58:24.419Z,99184.50
2022-11-19T02:01:29.432Z,99190.84
2022-11-19T02:04:32.794Z,99199.75
2022-11-19T02:07:36.597Z,99197.44
2022-11-19T02:10:50.843Z,99202.81
2022-11-19T02:13:58.904Z,99211.72
2022-11-19T02:17:22.672Z,99201.41
2022-11-19T02:20:33.705Z,99202.13
2022-11-19T02:23:57.415Z,99201.16
2022-11-19T02:26:59.610Z,99212.44
2022-11-19T02:30:13.856Z,99209.63
2022-11-19T02:33:25.934Z,99211.56
2022-11-19T02:36:27.999Z,99205.38
2022-11-19T02:39:36.852Z,99211.84
2022-11-19T02:43:08.190Z,99215.37
2022-11-19T02:46:15.101Z,99201.53
2022-11-19T02:49:21.460Z,99196.22
2022-11-19T02:52:24.088Z,99188.47
2022-11-19T02:55:28.022Z,99191.09
2022-11-19T02:58:51.341Z,99199.78
2022-11-19T03:02:12.567Z,99212.53
2022-11-19T03:05:19.466Z,99223.06
2022-11-19T03:08:22.032Z,99228.56
2022-11-19T03:11:32.845Z,99239.00
2022-11-19T03:15:03.603Z,99243.62
2022-11-19T03:18:32.327Z,99243.16
2022-11-19T03:21:40.399Z,99263.06
2022-11-19T03:24:47.643Z,99275.41
2022-11-19T03:27:54.472Z,99278.16
2022-11-19T03:30:59.797Z,99281.78
2022-11-19T03:34:10.885Z,99289.72
2022-11-19T03:37:17.870Z,99299.25
2022-11-19T03:40:23.682Z,99313.41
2022-11-19T03:43:30.233Z,99324.84
2022-11-19T03:46:34.920Z,99327.31
2022-11-19T03:49:42.094Z,99326.53
2022-11-19T03:52:44.811Z,99323.91
2022-11-19T03:55:56.113Z,99329.38
2022-11-19T03:58:59.418Z,99328.44
2022-11-19T04:02:08.816Z,99307.41
2022-11-19T04:05:11.138Z,99306.63
2022-11-19T04:08:13.370Z,99310.94
2022-11-19T04:11:15.706Z,99322.44
2022-11-19T04:14:18.055Z,99334.62
2022-11-19T04:17:20.687Z,99341.25
2022-11-19T04:20:22.926Z,99342.94
2022-11-19T04:23:25.136Z,99341.66
2022-11-19T04:26:27.410Z,99353.19
2022-11-19T04:29:29.724Z,99340.25
2022-11-19T04:32:32.195Z,99348.09
2022-11-19T04:35:34.544Z,99347.41
2022-11-19T04:38:36.723Z,99365.75
2022-11-19T04:41:40.156Z,99371.81
2022-11-19T04:44:42.278Z,99375.22
2022-11-19T04:47:44.486Z,99388.88
2022-11-19T04:50:46.589Z,99389.16
2022-11-19T04:53:48.923Z,99391.00
2022-11-19T04:56:51.143Z,99398.75
2022-11-19T04:59:53.307Z,99397.22
2022-11-19T05:02:55.550Z,99402.56
2022-11-19T05:05:57.756Z,99395.31
2022-11-19T05:09:00.047Z,99412.31
2022-11-19T05:12:02.325Z,99413.16
2022-11-19T05:15:05.027Z,99412.31
2022-11-19T05:18:07.382Z,99411.88
2022-11-19T05:21:09.551Z,99417.28
2022-11-19T05:24:11.739Z,99425.84
2022-11-19T05:27:14.056Z,99436.16
2022-11-19T05:30:17.086Z,99454.25
2022-11-19T05:33:19.300Z,99449.03
2022-11-19T05:36:21.418Z,99461.31
2022-11-19T05:39:24.340Z,99465.63
2022-11-19T05:42:26.844Z,99464.06
2022-11-19T05:45:29.042Z,99468.22
2022-11-19T05:48:31.321Z,99476.84
2022-11-19T05:51:33.575Z,99479.81
2022-11-19T05:54:35.791Z,99471.97
2022-11-19T05:57:37.940Z,99475.69
2022-11-19T06:00:40.275Z,99470.59
2022-11-19T06:03:42.533Z,99474.41
2022-11-19T06:06:44.847Z,99479.88
2022-11-19T06:09:47.160Z,99491.09
2022-11-19T06:12:49.431Z,99502.78
2022-11-19T06:15:51.757Z,99513.37
2022-11-19T06:18:54.462Z,99518.63
2022-11-19T06:21:56.738Z,99516.09
2022-11-19T06:24:58.908Z,99511.03
2022-11-19T06:28:01.121Z,99511.03
2022-11-19T06:31:03.622Z,99514.44
2022-11-19T06:34:05.894Z,99525.03
2022-11-19T06:37:08.548Z,99528.59
2022-11-19T06:40:11.402Z,99543.50
2022-11-19T06:43:13.620Z,99544.34
2022-11-19T06:46:16.687Z,99565.16
2022-11-19T06:49:20.482Z,99568.81
2022-11-19T06:52:22.828Z,99569.53
2022-11-19T06:55:25.115Z,99563.50
2022-11-19T06:58:28.159Z,99572.75
2022-11-19T07:01:31.386Z,99583.09
2022-11-19T07:04:33.686Z,99576.94
2022-11-19T07:07:35.901Z,99571.78
2022-11-19T07:10:38.169Z,99577.81
2022-11-19T07:13:58.579Z,99584.84
2022-11-19T07:17:00.825Z,99585.53
2022-11-19T07:20:03.378Z,99586.28
2022-11-19T07:23:10.683Z,99584.28
2022-11-19T07:26:14.200Z,99588.31
2022-11-19T07:29:16.890Z,99596.84
2022-11-19T07:32:19.142Z,99593.44
2022-11-19T07:35:21.467Z,99600.75
2022-11-19T07:38:23.742Z,99612.19
2022-11-19T07:41:44.699Z,99625.97
2022-11-19T07:44:49.775Z,99626.03
2022-11-19T07:47:55.831Z,99635.00
2022-11-19T07:50:58.317Z,99632.53
2022-11-19T07:54:00.574Z,99629.06
2022-11-19T07:57:02.899Z,99629.94
2022-11-19T08:00:07.077Z,99629.06
2022-11-19T08:03:11.373Z,99629.56
2022-11-19T08:06:15.745Z,99628.44
2022-11-19T08:09:18.415Z,99629.94
2022-11-19T08:12:20.827Z,99634.87
2022-11-19T08:15:23.152Z,99631.16
2022-11-19T08:18:30.923Z,99638.38
2022-11-19T08:21:34.879Z,99640.31
2022-11-19T08:24:37.277Z,99632.47
2022-11-19T08:27:39.585Z,99633.44
2022-11-19T08:30:42.094Z,99634.41
2022-11-19T08:33:44.412Z,99633.28
2022-11-19T08:36:46.666Z,99636.50
2022-11-19T08:39:48.873Z,99646.81
2022-11-19T08:43:00.792Z,99654.59
2022-11-19T08:46:03.034Z,99654.66
2022-11-19T08:49:05.816Z,99657.37
2022-11-19T08:52:08.224Z,99651.37
2022-11-19T08:55:10.634Z,99649.25
2022-11-19T08:58:12.888Z,99646.25
2022-11-19T09:01:17.880Z,99651.16
2022-11-19T09:04:20.520Z,99646.69
2022-11-19T09:07:22.976Z,99649.59
2022-11-19T09:10:25.424Z,99646.59
2022-11-19T09:13:27.689Z,99642.81
2022-11-19T09:16:30.006Z,99646.50
2022-11-19T09:19:32.343Z,99647.78
2022-11-19T09:22:34.804Z,99655.25
2022-11-19T09:25:37.006Z,99662.38
2022-11-19T09:28:40.095Z,99671.34
2022-11-19T09:31:42.806Z,99677.94
2022-11-19T09:34:45.059Z,99665.75
2022-11-19T09:37:47.269Z,99668.13
2022-11-19T09:40:57.432Z,99664.56
2022-11-19T09:44:23.803Z,99666.31
2022-11-19T09:47:34.956Z,99673.91
2022-11-19T09:50:54.647Z,99675.50
2022-11-19T09:54:03.552Z,99684.62
2022-11-19T09:57:13.830Z,99691.50
2022-11-19T10:00:22.995Z,99687.97
2022-11-19T10:03:31.577Z,99684.50
2022-11-19T10:06:49.215Z,99683.66
2022-11-19T10:10:05.389Z,99687.28
2022-11-19T10:13:53.335Z,99694.94
2022-11-19T10:17:00.736Z,99689.00
2022-11-19T10:20:30.736Z,99692.75
2022-11-19T10:24:05.834Z,99691.41
2022-11-19T10:27:24.796Z,99687.84
2022-11-19T10:30:30.514Z,99674.63
2022-11-19T10:33:59.859Z,99673.13
2022-11-19T10:37:20.556Z,99667.72
2022-11-19T10:40:25.644Z,99659.09
2022-11-19T10:43:46.480Z,99656.75
2022-11-19T10:46:49.781Z,99660.66
2022-11-19T10:49:54.337Z,99659.50
2022-11-19T10:53:01.681Z,99665.97
2022-11-19T10:56:09.181Z,99672.47
2022-11-19T10:59:21.017Z,99667.78
2022-11-19T11:02:59.925Z,99665.00
2022-11-19T11:06:10.154Z,99659.34
2022-11-19T11:09:15.122Z,99656.66
2022-11-19T11:12:42.925Z,99651.56
2022-11-19T11:15:50.811Z,99650.06
2022-11-19T11:18:55.203Z,99652.22
2022-11-19T11:21:58.027Z,99647.06
2022-11-19T11:25:06.805Z,99640.50
2022-11-19T11:28:20.723Z,99638.97
2022-11-19T11:31:35.990Z,99627.69
2022-11-19T11:34:44.073Z,99623.38
2022-11-19T11:37:47.608Z,99618.88
2022-11-19T11:44:38.673Z,99616.41
2022-11-19T11:47:41.186Z,99617.84
2022-11-19T11:50:46.429Z,99617.91
2022-11-19T11:54:04.904Z,99610.59
2022-11-19T11:57:19.716Z,99610.94
2022-11-19T12:00:41.581Z,99611.72
2022-11-19T12:03:55.664Z,99616.41
2022-11-19T12:07:21.228Z,99612.25
2022-11-19T12:10:48.513Z,99609.47
2022-11-19T12:14:12.069Z,99613.44
2022-11-19T12:17:29.500Z,99612.87
2022-11-19T12:20:50.833Z,99611.06
2022-11-19T12:24:28.516Z,99611.91
2022-11-19T12:27:41.735Z,99614.44
2022-11-19T12:31:07.319Z,99624.03
2022-11-19T12:34:40.847Z,99621.31
2022-11-19T12:37:59.445Z,99621.88
2022-11-19T12:41:31.304Z,99623.50
2022-11-19T12:45:11.017Z,99612.78
2022-11-19T12:48:45.091Z,99616.16
2022-11-19T12:52:06.933Z,99627.66
2022-11-19T12:55:15.468Z,99625.59
2022-11-19T12:58:48.267Z,99627.34
2022-11-19T13:01:55.230Z,99624.81
2022-11-19T13:05:20.022Z,99628.34
2022-11-19T13:08:31.071Z,99626.84
2022-11-19T13:11:52.264Z,99623.66
2022-11-19T13:15:17.003Z,99625.59
2022-11-19T13:18:22.017Z,99623.22
2022-11-19T13:21:51.572Z,99621.75
2022-11-19T13:25:00.063Z,99628.69
2022-11-19T13:28:06.961Z,99624.31
2022-11-19T13:31:41.803Z,99616.84
2022-11-19T13:35:00.068Z,99620.25
2022-11-19T13:38:20.843Z,99629.94
2022-11-19T13:41:35.812Z,99631.50
2022-11-19T13:44:44.305Z,99628.75
2022-11-19T13:47:58.348Z,99626.38
2022-11-19T13:51:04.404Z,99621.03
2022-11-19T13:54:09.338Z,99613.06
2022-11-19T13:57:34.459Z,99613.19
2022-11-19T14:00:37.851Z,99608.22
2022-11-19T14:04:10.998Z,99607.56
2022-11-19T14:07:19.063Z,99611.28
2022-11-19T14:10:27.605Z,99616.47
2022-11-19T14:13:45.447Z,99625.75
2022-11-19T14:17:15.148Z,99622.59
2022-11-19T14:20:59.736Z,99621.72
2022-11-19T14:24:20.782Z,99624.84
2022-11-19T14:27:23.979Z,99627.44
2022-11-19T14:31:04.891Z,99646.94
2022-11-19T14:34:26.385Z,99640.78
2022-11-19T14:37:37.746Z,99635.37
2022-11-19T14:40:43.955Z,99633.47
2022-11-19T14:44:11.110Z,99643.94
2022-11-19T14:47:22.318Z,99639.59
2022-11-19T14:50:29.210Z,99634.44
2022-11-19T14:53:31.871Z,99645.03
2022-11-19T14:56:37.452Z,99642.34
2022-11-19T14:59:45.531Z,99637.91
2022-11-19T15:02:52.083Z,99634.44
2022-11-19T15:05:54.742Z,99636.28
2022-11-19T15:08:59.522Z,99631.12
2022-11-19T15:12:02.306Z,99627.84
2022-11-19T15:15:19.806Z,99631.16
2022-11-19T15:18:28.379Z,99634.56
2022-11-19T15:22:16.249Z,99641.56
2022-11-19T15:25:34.377Z,99632.03
2022-11-19T15:29:03.278Z,99631.16
2022-11-19T15:32:37.870Z,99651.78
2022-11-19T15:36:18.642Z,99646.41
2022-11-19T15:39:36.055Z,99638.56
2022-11-19T15:42:58.778Z,99642.09
2022-11-19T15:46:15.439Z,99635.03
2022-11-19T15:49:29.779Z,99628.13
2022-11-19T15:52:32.768Z,99627.84
2022-11-19T15:55:36.795Z,99635.63
2022-11-19T15:58:44.556Z,99635.56
2022-11-19T16:02:01.573Z,99632.75
2022-11-19T16:05:05.497Z,99637.97
2022-11-19T16:08:12.445Z,99638.06
2022-11-19T16:11:36.864Z,99634.66
2022-11-19T16:14:58.071Z,99645.16
2022-11-19T16:18:00.752Z,99643.56
2022-11-19T16:21:04.563Z,99648.69
2022-11-19T16:24:32.007Z,99643.47
2022-11-19T16:27:34.795Z,99637.44
2022-11-19T16:30:46.584Z,99627.06
2022-11-19T16:33:55.342Z,99636.09
2022-11-19T16:36:58.342Z,99644.56
2022-11-19T16:40:00.954Z,99636.59
2022-11-19T16:43:03.395Z,99643.84
2022-11-19T16:46:07.023Z,99643.94
2022-11-19T16:49:33.633Z,99640.78
2022-11-19T16:52:41.089Z,99639.72
2022-11-19T16:55:51.824Z,99643.94
2022-11-19T16:58:59.566Z,99642.22
2022-11-19T17:02:03.525Z,99642.16
2022-11-19T17:05:12.801Z,99632.69
2022-11-19T17:08:38.507Z,99626.53
2022-11-19T17:12:30.571Z,99623.78
2022-11-19T17:16:02.233Z,99618.03
2022-11-19T17:19:16.701Z,99620.66
2022-11-19T17:22:27.468Z,99618.97
2022-11-19T17:25:29.957Z,99624.97
2022-11-19T17:28:41.368Z,99629.22
2022-11-19T17:31:48.744Z,99635.41
2022-11-19T17:34:55.809Z,99636.84
2022-11-19T17:38:09.043Z,99629.13
2022-11-19T17:41:15.467Z,99623.12
2022-11-19T17:44:36.770Z,99627.53
2022-11-19T17:47:39.557Z,99626.81
2022-11-19T17:50:42.056Z,99624.38
2022-11-19T17:53:44.484Z,99627.91
2022-11-19T17:56:47.159Z,99615.81
2022-11-19T17:59:50.145Z,99629.81
2022-11-19T18:02:53.032Z,99637.66
2022-11-19T18:05:56.485Z,99647.25
2022-11-19T18:08:59.285Z,99646.38
2022-11-19T18:12:02.215Z,99639.84
2022-11-19T18:15:05.323Z,99639.22
2022-11-19T18:18:08.148Z,99648.91
2022-11-19T18:21:16.713Z,99645.66
2022-11-19T18:24:19.723Z,99634.47
2022-11-19T18:27:22.740Z,99615.62
2022-11-19T18:30:25.363Z,99632.75
2022-11-19T18:33:28.099Z,99631.19
2022-11-19T18:36:30.834Z,99626.94
2022-11-19T18:39:33.503Z,99629.41
2022-11-19T18:42:36.579Z,99638.19
2022-11-19T18:45:39.168Z,99638.19
2022-11-19T18:48:41.669Z,99638.19
2022-11-19T18:51:45.115Z,99639.16
2022-11-19T18:54:47.761Z,99646.34
2022-11-19T18:57:50.607Z,99636.72
2022-11-19T19:00:53.404Z,99635.87
2022-11-19T19:03:56.018Z,99628.41
2022-11-19T19:06:59.910Z,99631.03
2022-11-19T19:10:03.627Z,99626.94
2022-11-19T19:13:06.628Z,99636.59
2022-11-19T19:16:09.736Z,99635.00
2022-11-19T19:19:14.812Z,99644.56
2022-11-19T19:22:17.728Z,99644.59
2022-11-19T19:25:20.605Z,99656.06
2022-11-19T19:28:23.050Z,99649.94
2022-11-19T19:31:26.381Z,99664.78
2022-11-19T19:34:30.405Z,99657.87
2022-11-19T19:37:33.785Z,99652.75
2022-11-19T19:40:37.223Z,99653.72
2022-11-19T19:43:40.647Z,99659.78
2022-11-19T19:46:43.500Z,99668.44
2022-11-19T19:49:47.103Z,99664.97
2022-11-19T19:52:49.838Z,99666.66
2022-11-19T19:55:52.856Z,99658.91
2022-11-19T19:58:57.178Z,99657.25
2022-11-19T20:02:00.275Z,99649.66
2022-11-19T20:05:02.912Z,99652.25
2022-11-19T20:08:05.904Z,99658.44
2022-11-19T20:11:19.129Z,99648.00
2022-11-19T20:14:21.897Z,99648.06
2022-11-19T20:17:24.664Z,99654.12
2022-11-19T20:20:27.263Z,99657.59
2022-11-19T20:23:30.586Z,99662.94
2022-11-19T20:26:33.760Z,99662.94
2022-11-19T20:29:36.706Z,99660.25
2022-11-19T20:32:39.854Z,99658.56
2022-11-19T20:35:55.098Z,99650.78
2022-11-19T20:38:58.211Z,99648.22
2022-11-19T20:42:19.425Z,99650.84
2022-11-19T20:45:22.981Z,99652.72
2022-11-19T20:48:25.906Z,99652.72
2022-11-19T20:51:28.431Z,99657.09
2022-11-19T20:54:31.057Z,99653.44
2022-11-19T20:57:33.667Z,99660.25
2022-11-19T21:00:36.269Z,99666.28
2022-11-19T21:03:39.603Z,99682.88
2022-11-19T21:06:43.348Z,99684.56
2022-11-19T21:09:46.105Z,99695.84
2022-11-19T21:13:01.614Z,99686.25
2022-11-19T21:16:09.273Z,99687.00
2022-11-19T21:19:12.926Z,99687.28
2022-11-19T21:22:15.757Z,99686.84
2022-11-19T21:25:18.678Z,99682.41
2022-11-19T21:28:21.670Z,99682.59
2022-11-19T21:31:39.199Z,99675.91
2022-11-19T21:34:42.272Z,99669.03
2022-11-19T21:37:45.080Z,99674.28
2022-11-19T21:40:47.720Z,99665.72
2022-11-19T21:43:50.410Z,99655.28
2022-11-19T21:46:52.862Z,99653.69
2022-11-19T21:50:00.171Z,99645.75
2022-11-19T21:53:02.696Z,99631.06
2022-11-19T21:56:05.576Z,99621.56
2022-11-19T21:59:08.299Z,99625.75
2022-11-19T22:02:14.081Z,99617.94
2022-11-19T22:05:16.539Z,99620.28
2022-11-19T22:08:18.932Z,99619.31
2022-11-19T22:11:30.870Z,99619.19
2022-11-19T22:14:33.725Z,99632.25
2022-11-19T22:17:37.287Z,99628.72
2022-11-19T22:20:41.687Z,99615.19
2022-11-19T22:23:44.017Z,99618.72
2022-11-19T22:26:46.461Z,99627.47
2022-11-19T22:29:48.919Z,99628.37
2022-11-19T22:32:53.428Z,99624.81
2022-11-19T22:36:05.003Z,99618.72
2022-11-19T22:39:10.888Z,99612.81
2022-11-19T22:42:13.309Z,99613.75
2022-11-19T22:45:15.771Z,99618.97
2022-11-19T22:48:18.230Z,99618.84
2022-11-19T22:51:23.756Z,99621.47
2022-11-19T22:54:26.149Z,99615.25
2022-11-19T22:57:28.743Z,99626.56
2022-11-19T23:00:48.067Z,99614.47
2022-11-19T23:03:51.669Z,99609.03
2022-11-19T23:06:54.075Z,99606.34
2022-11-19T23:09:56.578Z,99607.13
2022-11-19T23:13:18.283Z,99596.63
2022-11-19T23:16:20.785Z,99591.41
2022-11-19T23:19:23.472Z,99585.31
2022-11-19T23:22:25.976Z,99584.66
2022-11-19T23:25:28.418Z,99584.78
2022-11-19T23:28:33.385Z,99583.19
2022-11-19T23:31:38.903Z,99576.28
2022-11-19T23:34:41.229Z,99574.50
2022-11-19T23:37:43.659Z,99568.31
2022-11-19T23:40:46.324Z,99572.50
2022-11-19T23:43:49.070Z,99564.44
2022-11-19T23:46:51.515Z,99551.34
2022-11-19T23:49:54.083Z,99560.00
2022-11-19T23:52:56.524Z,99562.75
2022-11-19T23:55:59.617Z,99565.63
2022-11-19T23:59:03.336Z,99562.38
